Doddridge, Arkansas
Current Conditions -  °F | °C
As of 8:53 AM on Monday 24 Nov 2014 (Local Time) from KTXK Reporting Station
Clear Clear  
Wind Chill: 50°   Ceiling: Unl
Heat Index: 50°   Visibility: 10mi
Dew Point: 36°   Wind: 10mph
Humidity: 59%   Direction: 300°WNW
Pressure: 29.97"   Gusts: NA
Location:  33.09°N, 93.91°W
Report Text: KTXK 241453Z 30009KT 10SM CLR 10/02 A2997 RMK AO2 SLP148 T01000022 53032
Loading
Personal Weather Stations






























Interactive Weather Map New forecast layout! Learn more

10-Day Weather Forecast

Advertisements
Track Severe Weather on mobile